sensor_id;sensor_type;location;lat;lon;timestamp;pressure;altitude;pressure_sealevel;temperature;humidity
71565;BME280;59397;50.952;14.502;2023-04-30T00:12:08;984.45;;;4.96;28.88
71565;BME280;59397;50.952;14.502;2023-04-30T00:31:46;984.40;;;5.86;30.08
71565;BME280;59397;50.952;14.502;2023-04-30T00:51:22;984.38;;;6.54;31.72
71565;BME280;59397;50.952;14.502;2023-04-30T01:11:00;984.63;;;5.17;15.62
71565;BME280;59397;50.952;14.502;2023-04-30T01:30:25;984.62;;;4.92;22.83
71565;BME280;59397;50.952;14.502;2023-04-30T01:50:04;984.76;;;5.33;20.50
71565;BME280;59397;50.952;14.502;2023-04-30T02:09:29;984.73;;;4.70;25.89
71565;BME280;59397;50.952;14.502;2023-04-30T02:29:06;985.07;;;5.68;29.37
71565;BME280;59397;50.952;14.502;2023-04-30T02:48:43;985.16;;;6.32;29.42
71565;BME280;59397;50.952;14.502;2023-04-30T03:08:19;985.39;;;6.59;22.06
71565;BME280;59397;50.952;14.502;2023-04-30T03:27:51;985.57;;;5.28;19.12
71565;BME280;59397;50.952;14.502;2023-04-30T03:47:19;985.67;;;4.82;25.29
71565;BME280;59397;50.952;14.502;2023-04-30T04:06:57;985.79;;;5.78;28.65
71565;BME280;59397;50.952;14.502;2023-04-30T04:26:33;985.81;;;6.46;29.37
71565;BME280;59397;50.952;14.502;2023-04-30T04:46:08;986.11;;;6.70;25.60
71565;BME280;59397;50.952;14.502;2023-04-30T05:05:37;986.23;;;4.22;19.80
71565;BME280;59397;50.952;14.502;2023-04-30T05:25:15;986.34;;;5.31;27.02
71565;BME280;59397;50.952;14.502;2023-04-30T05:44:52;986.51;;;6.13;28.07
71565;BME280;59397;50.952;14.502;2023-04-30T06:04:28;986.67;;;6.83;28.17
71565;BME280;59397;50.952;14.502;2023-04-30T06:24:04;986.62;;;6.27;18.22
71565;BME280;59397;50.952;14.502;2023-04-30T06:43:29;986.55;;;4.56;22.35
71565;BME280;59397;50.952;14.502;2023-04-30T07:03:07;986.66;;;5.71;27.34
71565;BME280;59397;50.952;14.502;2023-04-30T07:22:44;986.74;;;6.44;27.98
71565;BME280;59397;50.952;14.502;2023-04-30T07:42:19;986.72;;;6.75;23.36
71565;BME280;59397;50.952;14.502;2023-04-30T08:01:50;987.19;;;2.94;44.89
71565;BME280;59397;50.952;14.502;2023-04-30T08:19:39;987.94;;;-18.21;56.95
71565;BME280;59397;50.952;14.502;2023-04-30T08:39:00;987.91;;;-20.75;54.27
71565;BME280;59397;50.952;14.502;2023-04-30T08:58:34;987.92;;;-20.77;72.77
71565;BME280;59397;50.952;14.502;2023-04-30T09:18:05;988.07;;;-20.15;83.96
71565;BME280;59397;50.952;14.502;2023-04-30T09:37:42;988.01;;;-21.04;55.18
71565;BME280;59397;50.952;14.502;2023-04-30T09:57:05;988.04;;;-21.71;72.87
71565;BME280;59397;50.952;14.502;2023-04-30T10:16:50;987.93;;;-18.59;91.61
71565;BME280;59397;50.952;14.502;2023-04-30T10:36:39;987.69;;;-13.41;100.00
71565;BME280;59397;50.952;14.502;2023-04-30T10:56:07;987.54;;;-15.04;99.37
71565;BME280;59397;50.952;14.502;2023-04-30T11:15:38;987.65;;;-16.65;85.04
71565;BME280;59397;50.952;14.502;2023-04-30T11:34:59;987.67;;;-18.67;81.35
71565;BME280;59397;50.952;14.502;2023-04-30T11:54:30;987.71;;;-19.73;79.24
71565;BME280;59397;50.952;14.502;2023-04-30T12:16:05;986.96;;;2.03;30.88
71565;BME280;59397;50.952;14.502;2023-04-30T12:35:43;986.76;;;4.67;43.85
71565;BME280;59397;50.952;14.502;2023-04-30T12:55:20;986.75;;;5.15;30.60
71565;BME280;59397;50.952;14.502;2023-04-30T13:16:21;986.21;;;34.33;16.25
71565;BME280;59397;50.952;14.502;2023-04-30T13:36:30;985.90;;;39.18;12.51
71565;BME280;59397;50.952;14.502;2023-04-30T13:55:36;985.80;;;36.37;14.30
71565;BME280;59397;50.952;14.502;2023-04-30T14:14:16;985.71;;;27.54;22.46
71565;BME280;59397;50.952;14.502;2023-04-30T14:33:41;985.69;;;23.43;26.24
71565;BME280;59397;50.952;14.502;2023-04-30T14:53:08;985.46;;;21.32;30.67
71565;BME280;59397;50.952;14.502;2023-04-30T15:12:35;985.38;;;19.65;33.71
71565;BME280;59397;50.952;14.502;2023-04-30T15:32:11;985.36;;;17.95;35.43
71565;BME280;59397;50.952;14.502;2023-04-30T15:51:42;985.40;;;16.52;38.97
71565;BME280;59397;50.952;14.502;2023-04-30T16:11:21;985.24;;;17.16;37.92
71565;BME280;59397;50.952;14.502;2023-04-30T16:30:50;985.17;;;16.09;40.26
71565;BME280;59397;50.952;14.502;2023-04-30T16:50:24;985.16;;;15.80;41.06
71565;BME280;59397;50.952;14.502;2023-04-30T17:09:53;985.10;;;15.08;42.31
71565;BME280;59397;50.952;14.502;2023-04-30T17:29:25;985.28;;;14.43;44.72
71565;BME280;59397;50.952;14.502;2023-04-30T17:48:57;985.35;;;13.76;47.47
71565;BME280;59397;50.952;14.502;2023-04-30T18:08:31;985.49;;;13.62;50.39
71565;BME280;59397;50.952;14.502;2023-04-30T18:27:53;985.65;;;13.05;51.75
71565;BME280;59397;50.952;14.502;2023-04-30T18:47:26;985.83;;;12.47;46.19
71565;BME280;59397;50.952;14.502;2023-04-30T19:06:58;985.95;;;11.97;45.17
71565;BME280;59397;50.952;14.502;2023-04-30T19:26:31;986.16;;;11.62;45.21
71565;BME280;59397;50.952;14.502;2023-04-30T19:46:04;986.10;;;11.43;46.32
71565;BME280;59397;50.952;14.502;2023-04-30T20:05:38;986.13;;;11.28;47.16
71565;BME280;59397;50.952;14.502;2023-04-30T20:25:11;986.20;;;11.02;48.41
71565;BME280;59397;50.952;14.502;2023-04-30T20:44:45;986.28;;;10.96;48.79
71565;BME280;59397;50.952;14.502;2023-04-30T21:04:17;986.12;;;10.55;49.78
71565;BME280;59397;50.952;14.502;2023-04-30T21:23:52;986.05;;;10.41;50.33
71565;BME280;59397;50.952;14.502;2023-04-30T21:43:25;985.97;;;10.26;50.30
71565;BME280;59397;50.952;14.502;2023-04-30T22:03:02;985.87;;;10.27;49.90
71565;BME280;59397;50.952;14.502;2023-04-30T22:22:15;985.78;;;9.88;50.75
71565;BME280;59397;50.952;14.502;2023-04-30T22:41:49;985.57;;;9.59;52.27
71565;BME280;59397;50.952;14.502;2023-04-30T23:01:23;985.61;;;9.45;54.21
71565;BME280;59397;50.952;14.502;2023-04-30T23:20:57;985.63;;;9.30;55.12
71565;BME280;59397;50.952;14.502;2023-04-30T23:40:32;985.67;;;8.84;57.64
